createdAt,value
2018-07-10T00:03:44.907Z,1.83
2018-07-10T00:07:55.717Z,3.63
2018-07-10T00:11:59.276Z,3.90
2018-07-10T00:16:02.816Z,5.37
2018-07-10T00:20:06.605Z,3.43
2018-07-10T00:24:10.279Z,2.03
2018-07-10T00:28:14.059Z,4.50
2018-07-10T00:32:17.823Z,6.03
2018-07-10T00:36:21.370Z,2.67
2018-07-10T00:40:25.172Z,3.13
2018-07-10T00:44:28.851Z,4.47
2018-07-10T00:48:32.401Z,2.80
2018-07-10T00:52:36.181Z,4.37
2018-07-10T00:56:40.296Z,2.83
2018-07-10T01:00:47.757Z,3.37
2018-07-10T01:04:51.435Z,6.00
2018-07-10T01:08:55.081Z,9.03
2018-07-10T01:12:58.627Z,4.80
2018-07-10T01:17:02.446Z,3.13
2018-07-10T01:21:06.140Z,2.83
2018-07-10T01:25:09.719Z,3.60
2018-07-10T01:29:21.029Z,2.57
2018-07-10T01:33:24.928Z,3.20
2018-07-10T01:37:28.606Z,6.93
2018-07-10T01:41:32.127Z,4.80
2018-07-10T01:45:35.923Z,3.63
2018-07-10T01:49:39.824Z,3.17
2018-07-10T01:53:43.725Z,2.27
2018-07-10T01:57:47.936Z,6.43
2018-07-10T02:01:51.516Z,3.70
2018-07-10T02:05:55.039Z,5.23
2018-07-10T02:09:58.820Z,3.40
2018-07-10T02:14:02.750Z,4.30
2018-07-10T02:18:06.387Z,3.67
2018-07-10T02:22:10.186Z,5.77
2018-07-10T02:26:18.836Z,1.87
2018-07-10T02:30:22.511Z,4.53
2018-07-10T02:34:26.074Z,6.87
2018-07-10T02:38:29.828Z,2.83
2018-07-10T02:42:34.143Z,2.27
2018-07-10T02:46:38.295Z,6.90
2018-07-10T02:50:42.407Z,6.33
2018-07-10T02:54:45.944Z,5.13
2018-07-10T02:58:50.124Z,2.27
2018-07-10T03:02:54.160Z,5.87
2018-07-10T03:06:58.114Z,5.60
2018-07-10T03:11:02.092Z,7.63
2018-07-10T03:15:07.281Z,4.73
2018-07-10T03:19:11.464Z,10.90
2018-07-10T03:23:15.251Z,4.80
2018-07-10T03:27:18.813Z,3.77
2018-07-10T03:31:23.102Z,8.13
2018-07-10T03:35:27.202Z,4.90
2018-07-10T03:39:31.316Z,7.90
2018-07-10T03:43:35.340Z,6.33
2018-07-10T03:47:39.031Z,6.77
2018-07-10T03:51:42.600Z,9.47
2018-07-10T03:55:46.143Z,3.63
2018-07-10T03:59:51.158Z,5.17
2018-07-10T04:03:54.985Z,6.30
2018-07-10T04:07:58.684Z,10.70
2018-07-10T04:12:02.462Z,8.20
2018-07-10T04:16:06.150Z,7.00
2018-07-10T04:20:10.186Z,5.50
2018-07-10T04:24:15.139Z,9.60
2018-07-10T04:28:28.849Z,8.27
2018-07-10T04:32:33.447Z,7.87
2018-07-10T04:36:36.999Z,4.47
2018-07-10T04:40:41.480Z,8.37
2018-07-10T04:44:46.156Z,12.43
2018-07-10T04:48:52.527Z,8.33
2018-07-10T04:53:04.328Z,9.03
2018-07-10T04:57:15.651Z,12.07
2018-07-10T05:01:19.305Z,11.07
2018-07-10T05:05:23.636Z,11.03
2018-07-10T05:09:27.540Z,7.83
2018-07-10T05:13:31.548Z,9.83
2018-07-10T05:17:35.314Z,8.70
2018-07-10T05:21:39.916Z,8.43
2018-07-10T05:25:48.344Z,11.43
2018-07-10T05:29:52.139Z,8.53
2018-07-10T05:33:55.954Z,9.60
2018-07-10T05:38:03.810Z,8.47
2018-07-10T05:42:07.629Z,10.87
2018-07-10T05:46:11.412Z,6.83
2018-07-10T05:50:16.939Z,7.23
2018-07-10T05:54:21.020Z,9.03
2018-07-10T05:58:25.108Z,4.80
2018-07-10T06:02:28.853Z,8.23
2018-07-10T06:06:32.500Z,7.13
2018-07-10T06:10:36.227Z,11.17
2018-07-10T06:14:39.792Z,8.40
2018-07-10T06:18:43.409Z,9.40
2018-07-10T06:22:47.958Z,10.10
2018-07-10T06:31:06.737Z,10.97
2018-07-10T06:35:19.461Z,9.23
2018-07-10T06:39:39.551Z,11.27
2018-07-10T06:43:45.474Z,13.40
2018-07-10T06:47:49.208Z,14.83
2018-07-10T06:52:25.549Z,15.70
2018-07-10T06:57:01.819Z,16.53
2018-07-10T07:01:20.174Z,10.50
2018-07-10T07:05:48.619Z,11.70
2018-07-10T07:09:58.983Z,14.00
2018-07-10T07:14:03.033Z,15.20
2018-07-10T07:18:07.112Z,16.93
2018-07-10T07:22:10.905Z,19.33
2018-07-10T07:26:14.594Z,17.53
2018-07-10T07:30:18.897Z,14.07
2018-07-10T07:34:23.133Z,15.17
2018-07-10T07:38:27.316Z,10.70
2018-07-10T07:42:31.617Z,17.20
2018-07-10T07:46:35.586Z,14.80
2018-07-10T07:50:39.396Z,21.70
2018-07-10T07:54:43.361Z,11.83
2018-07-10T07:58:47.192Z,22.50
2018-07-10T08:02:53.784Z,15.93
2018-07-10T08:06:58.240Z,25.57
2018-07-10T08:11:02.030Z,15.53
2018-07-10T08:15:06.110Z,22.40
2018-07-10T08:19:10.182Z,13.17
2018-07-10T08:23:13.880Z,15.10
2018-07-10T08:27:17.693Z,18.90
2018-07-10T08:31:21.424Z,23.83
2018-07-10T08:35:25.303Z,23.93
2018-07-10T08:39:29.027Z,16.50
2018-07-10T08:43:33.054Z,16.97
2018-07-10T08:47:37.761Z,21.27
2018-07-10T08:51:42.170Z,11.07
2018-07-10T08:55:45.876Z,15.43
2018-07-10T08:59:49.753Z,15.37
2018-07-10T09:03:53.489Z,15.23
2018-07-10T09:07:58.738Z,21.97
2018-07-10T09:12:02.664Z,19.17
2018-07-10T09:16:06.431Z,21.00
2018-07-10T09:20:10.197Z,10.60
2018-07-10T09:24:14.201Z,20.60
2018-07-10T09:28:17.916Z,12.00
2018-07-10T09:32:27.337Z,17.77
2018-07-10T09:36:31.299Z,17.50
2018-07-10T09:40:35.533Z,18.73
2018-07-10T09:44:39.460Z,13.27
2018-07-10T09:48:44.435Z,12.63
2018-07-10T09:52:48.779Z,17.87
2018-07-10T09:56:52.461Z,12.13
2018-07-10T10:01:02.075Z,17.47
2018-07-10T10:05:06.831Z,14.30
2018-07-10T10:09:10.770Z,7.43
2018-07-10T10:13:14.789Z,14.03
2018-07-10T10:17:18.870Z,10.10
2018-07-10T10:21:22.560Z,10.53
2018-07-10T10:25:26.116Z,7.30
2018-07-10T10:29:29.689Z,9.53
2018-07-10T10:33:33.228Z,11.40
2018-07-10T10:37:37.553Z,7.97
2018-07-10T10:41:41.352Z,8.73
2018-07-10T10:45:45.337Z,18.03
2018-07-10T10:49:49.540Z,4.53
2018-07-10T10:53:59.788Z,8.10
2018-07-10T10:58:04.064Z,9.10
2018-07-10T11:02:07.832Z,7.53
2018-07-10T11:06:11.371Z,5.30
2018-07-10T11:10:16.771Z,8.60
2018-07-10T11:14:20.969Z,6.93
2018-07-10T11:18:33.845Z,10.50
2018-07-10T11:22:39.800Z,19.03
2018-07-10T11:26:45.295Z,8.07
2018-07-10T11:30:49.324Z,9.97
2018-07-10T11:34:53.209Z,8.47
2018-07-10T11:39:05.603Z,6.03
2018-07-10T11:43:10.181Z,13.30
2018-07-10T11:47:13.780Z,14.73
2018-07-10T11:51:17.803Z,8.50
2018-07-10T11:55:21.495Z,7.23
2018-07-10T11:59:25.902Z,6.30
2018-07-10T12:03:34.917Z,8.47
2018-07-10T12:07:39.317Z,7.27
2018-07-10T12:11:44.024Z,10.90
2018-07-10T12:15:48.281Z,5.10
2018-07-10T12:19:52.573Z,5.50
2018-07-10T12:23:56.299Z,5.97
2018-07-10T12:28:00.431Z,11.13
2018-07-10T12:32:03.959Z,11.47
2018-07-10T12:36:07.728Z,9.07
2018-07-10T12:40:14.542Z,7.03
2018-07-10T12:44:18.424Z,6.90
2018-07-10T12:48:22.244Z,12.30
2018-07-10T12:52:26.403Z,14.60
2018-07-10T12:56:30.168Z,17.83
2018-07-10T13:00:36.580Z,5.60
2018-07-10T13:04:40.640Z,8.57
2018-07-10T13:08:44.641Z,11.03
2018-07-10T13:12:52.913Z,6.73
2018-07-10T13:16:58.352Z,7.90
2018-07-10T13:21:03.047Z,10.97
2018-07-10T13:25:06.807Z,6.07
2018-07-10T13:29:10.405Z,8.00
2018-07-10T13:33:14.646Z,13.50
2018-07-10T13:37:22.164Z,10.50
2018-07-10T13:41:26.760Z,13.73
2018-07-10T13:45:31.634Z,3.00
2018-07-10T13:49:35.415Z,5.90
2018-07-10T13:53:57.863Z,8.30
2018-07-10T13:58:08.497Z,7.00
2018-07-10T14:02:13.776Z,5.30
2018-07-10T14:06:17.849Z,4.37
2018-07-10T14:10:22.342Z,5.63
2018-07-10T14:14:26.058Z,7.93
2018-07-10T14:18:30.851Z,8.53
2018-07-10T14:22:34.973Z,7.37
2018-07-10T14:26:38.909Z,3.20
2018-07-10T14:30:42.717Z,5.20
2018-07-10T14:34:46.623Z,6.67
2018-07-10T14:38:50.831Z,5.77
2018-07-10T14:42:54.905Z,3.67
2018-07-10T14:47:00.738Z,4.57
2018-07-10T14:51:04.530Z,6.57
2018-07-10T14:55:08.569Z,9.93
2018-07-10T14:59:15.468Z,4.27
2018-07-10T15:07:39.368Z,4.13
2018-07-10T15:11:50.112Z,4.40
2018-07-10T15:16:05.866Z,8.23
2018-07-10T15:20:09.512Z,7.27
2018-07-10T15:24:13.441Z,5.90
2018-07-10T15:28:18.921Z,5.77
2018-07-10T15:32:27.550Z,6.70
2018-07-10T15:36:32.605Z,4.17
2018-07-10T15:40:37.408Z,5.40
2018-07-10T15:44:41.077Z,6.80
2018-07-10T15:48:44.832Z,7.93
2018-07-10T15:52:49.709Z,5.23
2018-07-10T15:56:53.700Z,6.50
2018-07-10T16:00:57.403Z,6.87
2018-07-10T16:05:01.837Z,10.50
2018-07-10T16:09:20.525Z,6.23
2018-07-10T16:13:25.124Z,4.43
2018-07-10T16:17:28.836Z,7.13
2018-07-10T16:21:39.472Z,6.17
2018-07-10T16:25:44.963Z,4.70
2018-07-10T16:29:48.863Z,4.73
2018-07-10T16:33:56.443Z,4.97
2018-07-10T16:38:01.821Z,4.20
2018-07-10T16:42:11.396Z,6.03
2018-07-10T16:46:16.221Z,7.53
2018-07-10T16:50:19.889Z,7.20
2018-07-10T16:54:23.626Z,5.67
2018-07-10T16:58:27.720Z,5.33
2018-07-10T17:02:31.536Z,5.10
2018-07-10T17:06:35.308Z,6.53
2018-07-10T17:10:41.697Z,4.73
2018-07-10T17:19:13.976Z,10.20
2018-07-10T17:23:17.937Z,10.53
2018-07-10T17:27:28.699Z,2.40
2018-07-10T17:31:32.684Z,3.87
2018-07-10T17:35:37.378Z,8.20
2018-07-10T17:39:41.515Z,9.97
2018-07-10T17:43:45.728Z,6.43
2018-07-10T17:47:50.118Z,2.73
2018-07-10T17:51:54.081Z,6.20
2018-07-10T17:55:57.615Z,6.90
2018-07-10T18:00:01.858Z,3.73
2018-07-10T18:04:06.246Z,4.83
2018-07-10T18:08:10.414Z,5.00
2018-07-10T18:12:14.299Z,3.77
2018-07-10T18:16:18.200Z,3.07
2018-07-10T18:20:21.817Z,4.53
2018-07-10T18:24:25.491Z,2.60
2018-07-10T18:28:29.256Z,3.77
2018-07-10T18:32:33.089Z,5.20
2018-07-10T18:36:37.157Z,4.83
2018-07-10T18:40:41.157Z,5.83
2018-07-10T18:44:44.828Z,3.07
2018-07-10T18:48:48.737Z,4.67
2018-07-10T18:52:53.685Z,4.90
2018-07-10T18:56:57.370Z,4.93
2018-07-10T19:01:02.560Z,4.60
2018-07-10T19:05:07.796Z,5.47
2018-07-10T19:09:24.781Z,5.70
2018-07-10T19:13:28.631Z,5.30
2018-07-10T19:17:32.429Z,6.23
2018-07-10T19:21:38.391Z,4.67
2018-07-10T19:25:41.948Z,6.67
2018-07-10T19:29:48.848Z,5.10
2018-07-10T19:33:52.999Z,5.50
2018-07-10T19:37:57.235Z,4.17
2018-07-10T19:42:00.885Z,5.10
2018-07-10T19:46:04.940Z,4.20
2018-07-10T19:50:11.655Z,4.87
2018-07-10T19:54:15.741Z,3.43
2018-07-10T19:58:28.488Z,6.03
2018-07-10T20:02:32.677Z,2.63
2018-07-10T20:06:38.550Z,4.47
2018-07-10T20:10:48.733Z,4.00
2018-07-10T20:14:56.183Z,4.57
2018-07-10T20:19:11.552Z,5.90
2018-07-10T20:23:20.782Z,2.80
2018-07-10T20:27:29.061Z,5.63
2018-07-10T20:31:39.117Z,6.40
2018-07-10T20:35:47.884Z,4.57
2018-07-10T20:39:51.748Z,12.27
2018-07-10T20:43:55.800Z,3.97
2018-07-10T20:48:00.301Z,3.13
2018-07-10T20:52:07.320Z,2.80
2018-07-10T20:56:17.244Z,6.73
2018-07-10T21:00:20.928Z,4.40
2018-07-10T21:04:27.511Z,3.07
2018-07-10T21:08:32.299Z,3.90
2018-07-10T21:12:51.236Z,6.43
2018-07-10T21:17:05.049Z,3.37
2018-07-10T21:21:13.395Z,4.37
2018-07-10T21:25:22.933Z,6.23
2018-07-10T21:29:46.418Z,5.30
2018-07-10T21:33:51.844Z,9.10
2018-07-10T21:38:11.457Z,5.83
2018-07-10T21:42:28.123Z,7.13
2018-07-10T21:46:44.592Z,5.90
2018-07-10T21:50:51.999Z,6.93
2018-07-10T21:54:56.002Z,9.40
2018-07-10T21:58:59.755Z,6.40
2018-07-10T22:03:03.384Z,8.43
2018-07-10T22:07:09.245Z,7.30
2018-07-10T22:11:13.093Z,7.17
2018-07-10T22:15:17.128Z,9.83
2018-07-10T22:19:26.662Z,12.47
2018-07-10T22:23:30.497Z,6.07
2018-07-10T22:27:35.424Z,9.40
2018-07-10T22:31:44.487Z,8.70
2018-07-10T22:35:48.237Z,9.27
2018-07-10T22:39:52.296Z,8.37
2018-07-10T22:43:56.588Z,6.90
2018-07-10T22:48:00.705Z,8.30
2018-07-10T22:52:04.968Z,7.97
2018-07-10T22:56:08.664Z,11.60
2018-07-10T23:00:24.008Z,5.43
2018-07-10T23:04:27.697Z,7.37
2018-07-10T23:08:33.362Z,6.17
2018-07-10T23:12:36.744Z,7.90
2018-07-10T23:16:41.180Z,10.60
2018-07-10T23:20:44.679Z,8.70
2018-07-10T23:24:48.243Z,11.60
2018-07-10T23:28:52.973Z,7.97
2018-07-10T23:32:56.727Z,7.03
2018-07-10T23:37:00.180Z,8.20
2018-07-10T23:41:03.523Z,11.60
2018-07-10T23:45:11.138Z,9.87
2018-07-10T23:49:17.464Z,8.53
2018-07-10T23:53:55.385Z,9.80
2018-07-10T23:57:58.929Z,9.03
